createdAt,value
2023-05-21T00:00:36.002Z,13.90
2023-05-21T00:06:01.622Z,9.10
2023-05-21T00:11:04.937Z,6.60
2023-05-21T00:21:12.355Z,10.40
2023-05-21T00:26:15.662Z,10.30
2023-05-21T00:36:23.820Z,6.30
2023-05-21T00:41:26.799Z,5.10
2023-05-21T00:46:30.115Z,5.30
2023-05-21T00:51:33.442Z,5.20
2023-05-21T00:56:37.017Z,5.10
2023-05-21T01:01:40.263Z,4.90
2023-05-21T01:11:51.953Z,5.30
2023-05-21T01:16:55.226Z,7.20
2023-05-21T01:27:10.680Z,6.10
2023-05-21T01:32:42.750Z,6.10
2023-05-21T01:37:58.125Z,5.40
2023-05-21T01:43:02.205Z,5.90
2023-05-21T01:48:07.577Z,5.40
2023-05-21T01:53:10.799Z,19.00
2023-05-21T01:58:14.315Z,22.20
2023-05-21T02:03:19.633Z,24.70
2023-05-21T02:08:23.523Z,6.10
2023-05-21T02:13:27.042Z,4.70
2023-05-21T02:18:30.148Z,5.40
2023-05-21T02:23:33.111Z,5.20
2023-05-21T02:28:36.539Z,5.30
2023-05-21T02:33:41.938Z,5.20
2023-05-21T02:38:45.529Z,5.20
2023-05-21T02:43:48.492Z,5.20
2023-05-21T02:48:51.436Z,5.30
2023-05-21T02:53:54.415Z,5.60
2023-05-21T02:58:57.389Z,4.90
2023-05-21T03:04:00.591Z,5.10
2023-05-21T03:09:04.813Z,5.00
2023-05-21T03:14:07.789Z,4.80
2023-05-21T03:19:11.659Z,5.80
2023-05-21T03:24:15.306Z,6.60
2023-05-21T03:29:18.333Z,6.00
2023-05-21T03:34:21.593Z,6.00
2023-05-21T03:44:28.101Z,12.30
2023-05-21T03:49:31.073Z,6.40
2023-05-21T03:54:34.035Z,5.70
2023-05-21T03:59:37.090Z,5.40
2023-05-21T04:04:40.246Z,5.90
2023-05-21T04:09:43.246Z,5.60
2023-05-21T04:19:49.634Z,5.40
2023-05-21T04:29:58.174Z,5.80
2023-05-21T04:35:02.147Z,5.30
2023-05-21T04:40:06.804Z,5.40
2023-05-21T04:45:10.526Z,5.50
2023-05-21T04:50:13.667Z,5.90
2023-05-21T05:00:22.711Z,5.80
2023-05-21T05:05:26.235Z,5.50
2023-05-21T05:10:29.236Z,5.70
2023-05-21T05:15:32.199Z,5.70
2023-05-21T05:20:35.187Z,5.10
2023-05-21T05:30:44.423Z,5.00
2023-05-21T05:35:47.552Z,4.80
2023-05-21T05:40:50.559Z,5.20
2023-05-21T05:50:57.697Z,5.00
2023-05-21T06:01:03.672Z,4.90
2023-05-21T06:11:11.012Z,4.40
2023-05-21T06:16:14.073Z,5.20
2023-05-21T06:21:17.164Z,5.00
2023-05-21T06:26:20.168Z,4.80
2023-05-21T06:36:29.887Z,4.80
2023-05-21T06:41:33.138Z,5.20
2023-05-21T06:46:36.462Z,5.60
2023-05-21T06:51:39.512Z,5.30
2023-05-21T06:56:42.495Z,5.20
2023-05-21T07:01:45.568Z,6.00
2023-05-21T07:06:48.658Z,5.60
2023-05-21T07:11:53.087Z,4.90
2023-05-21T07:16:56.127Z,5.60
2023-05-21T07:21:59.188Z,5.40
2023-05-21T07:27:06.478Z,5.40
2023-05-21T07:32:14.533Z,5.10
2023-05-21T07:37:17.712Z,5.10
2023-05-21T07:42:20.821Z,5.60
2023-05-21T07:47:23.867Z,5.40
2023-05-21T07:52:26.940Z,6.10
2023-05-21T07:57:29.973Z,5.50
2023-05-21T08:02:32.982Z,5.40
2023-05-21T08:07:36.516Z,5.00
2023-05-21T08:12:39.546Z,5.50
2023-05-21T08:17:42.572Z,5.40
2023-05-21T08:22:45.542Z,5.20
2023-05-21T08:27:50.383Z,5.50
2023-05-21T08:32:55.380Z,5.90
2023-05-21T08:37:59.012Z,5.40
2023-05-21T08:43:02.017Z,5.00
2023-05-21T08:48:06.657Z,5.00
2023-05-21T08:53:19.849Z,4.90
2023-05-21T08:58:33.844Z,4.90
2023-05-21T09:03:40.631Z,5.20
2023-05-21T09:08:46.194Z,4.80
2023-05-21T09:13:51.474Z,4.90
2023-05-21T09:18:54.511Z,4.70
2023-05-21T09:24:00.020Z,4.70
2023-05-21T09:29:08.871Z,4.40
2023-05-21T09:34:15.555Z,4.00
2023-05-21T09:39:29.713Z,3.90
2023-05-21T09:44:38.723Z,4.00
2023-05-21T09:49:44.340Z,4.20
2023-05-21T09:54:47.294Z,3.70
2023-05-21T10:04:55.740Z,3.70
2023-05-21T10:10:01.910Z,3.20
2023-05-21T10:15:09.415Z,3.90
2023-05-21T10:20:13.231Z,2.90
2023-05-21T10:25:17.527Z,3.80
2023-05-21T10:30:25.020Z,3.30
2023-05-21T10:35:29.000Z,3.10
2023-05-21T10:40:33.996Z,3.50
2023-05-21T10:45:48.211Z,4.80
2023-05-21T10:51:23.993Z,3.80
2023-05-21T10:56:48.014Z,3.00
2023-05-21T11:01:53.261Z,4.60
2023-05-21T11:07:00.471Z,3.60
2023-05-21T11:12:04.944Z,3.70
2023-05-21T11:17:14.675Z,3.80
2023-05-21T11:22:31.010Z,2.90
2023-05-21T11:27:36.023Z,3.60
2023-05-21T11:32:41.276Z,3.30
2023-05-21T11:37:53.646Z,3.90
2023-05-21T11:42:57.401Z,3.80
2023-05-21T11:48:00.750Z,3.30
2023-05-21T11:53:03.800Z,3.00
2023-05-21T11:58:09.205Z,3.20
2023-05-21T12:03:14.616Z,3.50
2023-05-21T12:08:28.262Z,3.40
2023-05-21T12:13:32.218Z,3.40
2023-05-21T12:18:37.274Z,3.60
2023-05-21T12:23:40.238Z,3.40
2023-05-21T12:28:43.426Z,4.30
2023-05-21T12:33:51.516Z,3.50
2023-05-21T12:38:55.312Z,3.60
2023-05-21T12:43:58.312Z,4.10
2023-05-21T12:49:01.435Z,3.50
2023-05-21T12:54:04.711Z,3.50
2023-05-21T12:59:13.614Z,7.60
2023-05-21T13:04:20.309Z,3.10
2023-05-21T13:09:23.293Z,3.40
2023-05-21T13:14:26.267Z,5.20
2023-05-21T13:19:29.431Z,4.00
2023-05-21T13:24:32.555Z,3.40
2023-05-21T13:29:38.150Z,3.80
2023-05-21T13:34:41.198Z,3.60
2023-05-21T13:39:44.173Z,3.90
2023-05-21T13:44:48.165Z,3.00
2023-05-21T13:49:51.711Z,3.40
2023-05-21T13:54:54.862Z,3.20
2023-05-21T13:59:59.602Z,5.90
2023-05-21T14:05:02.637Z,3.10
2023-05-21T14:10:06.404Z,3.20
2023-05-21T14:15:10.310Z,2.70
2023-05-21T14:20:13.429Z,3.00
2023-05-21T14:25:16.371Z,3.00
2023-05-21T14:30:19.316Z,2.60
2023-05-21T14:35:24.935Z,3.00
2023-05-21T14:40:29.875Z,2.90
2023-05-21T14:45:35.623Z,2.90
2023-05-21T14:50:39.740Z,2.90
2023-05-21T14:55:43.008Z,3.50
2023-05-21T15:00:46.196Z,3.10
2023-05-21T15:05:49.280Z,3.10
2023-05-21T15:10:52.659Z,3.20
2023-05-21T15:15:58.417Z,3.10
2023-05-21T15:21:01.473Z,3.40
2023-05-21T15:26:04.653Z,3.50
2023-05-21T15:31:07.648Z,3.80
2023-05-21T15:36:10.895Z,2.80
2023-05-21T15:41:13.916Z,20.00
2023-05-21T15:46:16.920Z,19.80
2023-05-21T15:51:20.178Z,32.00
2023-05-21T15:56:23.152Z,3.90
2023-05-21T16:01:27.653Z,3.40
2023-05-21T16:06:31.677Z,3.50
2023-05-21T16:11:35.468Z,3.20
2023-05-21T16:16:39.450Z,2.80
2023-05-21T16:21:45.514Z,3.00
2023-05-21T16:26:49.567Z,3.20
2023-05-21T16:31:52.587Z,3.60
2023-05-21T16:36:56.512Z,3.20
2023-05-21T16:41:59.893Z,3.40
2023-05-21T16:47:04.443Z,4.00
2023-05-21T16:52:07.408Z,3.80
2023-05-21T17:02:16.323Z,3.50
2023-05-21T17:07:19.847Z,3.50
2023-05-21T17:12:22.924Z,3.10
2023-05-21T17:17:26.024Z,3.30
2023-05-21T17:22:29.132Z,3.70
2023-05-21T17:27:32.557Z,3.40
2023-05-21T17:32:36.069Z,3.30
2023-05-21T17:37:39.069Z,3.40
2023-05-21T17:47:45.049Z,3.70
2023-05-21T17:52:48.034Z,3.10
2023-05-21T18:02:54.110Z,3.10
2023-05-21T18:07:57.224Z,3.20
2023-05-21T18:18:03.253Z,3.10
2023-05-21T18:23:06.289Z,3.30
2023-05-21T18:33:15.296Z,3.50
2023-05-21T18:38:18.349Z,3.30
2023-05-21T18:48:24.407Z,3.70
2023-05-21T18:58:30.968Z,3.70
2023-05-21T19:03:33.949Z,3.80
2023-05-21T19:08:36.961Z,3.40
2023-05-21T19:13:39.949Z,3.60
2023-05-21T19:18:43.869Z,3.90
2023-05-21T19:23:53.295Z,4.00
2023-05-21T19:28:57.198Z,4.10
2023-05-21T19:39:04.333Z,3.80
2023-05-21T19:44:07.352Z,3.90
2023-05-21T19:49:14.670Z,4.00
2023-05-21T19:54:18.681Z,4.40
2023-05-21T19:59:21.721Z,4.20
2023-05-21T20:04:24.957Z,4.30
2023-05-21T20:09:28.119Z,4.30
2023-05-21T20:19:37.863Z,5.20
2023-05-21T20:24:42.531Z,4.20
2023-05-21T20:29:46.561Z,4.70
2023-05-21T20:35:02.154Z,4.30
2023-05-21T20:40:07.262Z,4.30
2023-05-21T20:45:12.914Z,4.90
2023-05-21T20:50:17.786Z,4.50
2023-05-21T20:55:21.284Z,4.60
2023-05-21T21:05:37.651Z,4.10
2023-05-21T21:10:42.493Z,5.00
2023-05-21T21:15:45.617Z,4.60
2023-05-21T21:25:53.011Z,5.00
2023-05-21T21:30:56.165Z,5.50
2023-05-21T21:36:00.982Z,4.90
2023-05-21T21:41:03.992Z,5.10
2023-05-21T21:46:07.078Z,4.80
2023-05-21T21:51:10.416Z,5.40
2023-05-21T22:06:19.238Z,5.40
2023-05-21T22:11:22.846Z,5.40
2023-05-21T22:16:27.649Z,5.20
2023-05-21T22:21:33.201Z,11.30
2023-05-21T22:26:36.238Z,10.20
2023-05-21T22:31:39.306Z,6.70
2023-05-21T22:36:43.642Z,6.50
2023-05-21T22:41:46.705Z,6.60
2023-05-21T22:46:49.827Z,9.60
2023-05-21T22:51:54.358Z,10.00
2023-05-21T22:56:57.329Z,8.60
2023-05-21T23:02:00.453Z,5.80
2023-05-21T23:07:03.922Z,8.80
2023-05-21T23:12:07.887Z,7.50
2023-05-21T23:17:11.165Z,7.20
2023-05-21T23:27:17.158Z,6.60
2023-05-21T23:32:20.247Z,6.10
2023-05-21T23:37:23.470Z,6.40
2023-05-21T23:42:26.471Z,6.80
2023-05-21T23:47:29.473Z,7.00
2023-05-21T23:52:32.480Z,12.30
2023-05-21T23:57:35.463Z,6.10
